Time;durP1;ratioP1;P1;durP2;ratioP2;P2;SDS_P1;SDS_P2;PMS_P1;PMS_P2;Temp;Humidity;BMP_temperature;BMP_pressure;BME280_temperature;BME280_humidity;BME280_pressure;Samples;Min_cycle;Max_cycle;Signal;HPM_P1;HPM_P2
2021/03/21 00:00:49;;;;;;;7.72;4.18;;;;;;;7.31;100.00;101136.13;4964232;28;20086;-74
2021/03/21 00:03:16;;;;;;;8.63;4.70;;;;;;;7.32;100.00;101122.41;4969439;28;20497;-74
2021/03/21 00:05:42;;;;;;;8.32;4.25;;;;;;;7.23;100.00;101124.34;4968497;28;20022;-74
2021/03/21 00:08:15;;;;;;;10.13;4.95;;;;;;;7.32;100.00;101127.75;4970623;28;20038;-74
2021/03/21 00:10:41;;;;;;;11.50;4.85;;;;;;;7.21;100.00;101105.13;4970325;28;20031;-75
2021/03/21 00:13:07;;;;;;;11.18;5.70;;;;;;;7.25;100.00;101105.25;4969543;28;20700;-74
2021/03/21 00:15:32;;;;;;;12.52;5.75;;;;;;;7.33;100.00;101104.44;4970549;28;20062;-74
2021/03/21 00:17:59;;;;;;;13.05;5.90;;;;;;;7.25;100.00;101105.25;4968256;28;20599;-74
2021/03/21 00:20:29;;;;;;;16.80;6.55;;;;;;;7.31;100.00;101098.63;4971212;28;20046;-74
2021/03/21 00:22:54;;;;;;;12.95;5.80;;;;;;;7.31;100.00;101101.28;4971093;28;20071;-74
2021/03/21 00:25:24;;;;;;;20.35;6.78;;;;;;;7.20;100.00;101095.50;4969130;28;20089;-74
2021/03/21 00:27:50;;;;;;;18.40;7.30;;;;;;;7.21;100.00;101089.03;4966249;28;20038;-74
2021/03/21 00:30:21;;;;;;;16.77;6.45;;;;;;;7.05;100.00;101096.03;4973612;28;20163;-74
2021/03/21 00:32:46;;;;;;;17.65;7.45;;;;;;;7.16;100.00;101081.16;4971460;28;20027;-74
2021/03/21 00:35:13;;;;;;;18.15;6.68;;;;;;;7.20;100.00;101079.44;4961680;28;20069;-74
2021/03/21 00:37:41;;;;;;;15.85;6.10;;;;;;;7.29;100.00;101068.69;4969783;28;20511;-74
2021/03/21 00:40:10;;;;;;;13.65;6.10;;;;;;;7.35;100.00;101066.59;4971715;28;20215;-74
2021/03/21 00:42:36;;;;;;;11.32;5.05;;;;;;;7.33;100.00;101066.94;4961846;28;20039;-74
2021/03/21 00:45:04;;;;;;;11.80;5.45;;;;;;;7.30;100.00;101067.56;4970800;28;20121;-74
2021/03/21 00:47:30;;;;;;;12.65;4.97;;;;;;;7.26;100.00;101056.72;4969354;28;20053;-74
2021/03/21 00:49:55;;;;;;;11.13;4.93;;;;;;;7.30;100.00;101057.66;4971063;28;20492;-74
2021/03/21 00:52:21;;;;;;;9.85;4.88;;;;;;;7.41;100.00;101043.91;4969662;28;20027;-75
2021/03/21 00:54:46;;;;;;;13.02;5.70;;;;;;;7.41;100.00;101038.53;4970704;28;20023;-74
2021/03/21 00:57:12;;;;;;;9.98;5.03;;;;;;;7.36;100.00;101046.75;4970571;28;20431;-74
2021/03/21 00:59:38;;;;;;;12.27;5.25;;;;;;;7.35;100.00;101040.63;4967929;28;21190;-74
2021/03/21 01:02:04;;;;;;;13.00;5.47;;;;;;;7.32;100.00;101027.84;4969430;28;20496;-74
2021/03/21 01:04:29;;;;;;;11.20;5.13;;;;;;;7.35;100.00;101034.47;4968867;28;20090;-74
2021/03/21 01:06:55;;;;;;;14.23;5.50;;;;;;;7.35;100.00;101013.84;4969308;28;20566;-74
2021/03/21 01:09:20;;;;;;;13.23;5.60;;;;;;;7.32;100.00;101012.56;4985719;28;20098;-75
2021/03/21 01:11:46;;;;;;;14.20;6.05;;;;;;;7.27;100.00;100999.38;4966724;28;20035;-74
2021/03/21 01:14:11;;;;;;;15.25;6.50;;;;;;;7.43;100.00;100994.25;4969293;28;20085;-74
2021/03/21 01:16:39;;;;;;;19.02;6.82;;;;;;;7.50;100.00;101010.59;4993627;23;20447;-75
2021/03/21 01:19:10;;;;;;;15.55;6.47;;;;;;;7.48;100.00;100999.41;4969908;28;20826;-75
2021/03/21 01:21:38;;;;;;;18.92;7.47;;;;;;;7.45;100.00;100996.59;4955335;28;20031;-76
2021/03/21 01:24:03;;;;;;;18.27;8.00;;;;;;;7.28;100.00;101003.63;4965254;28;20038;-75
2021/03/21 01:26:29;;;;;;;16.45;7.63;;;;;;;7.30;100.00;100995.25;4970210;28;20044;-75
2021/03/21 01:28:59;;;;;;;21.92;8.55;;;;;;;7.31;100.00;100999.50;4952276;29;20043;-75
2021/03/21 01:31:25;;;;;;;20.40;8.18;;;;;;;7.42;100.00;101002.59;4951545;28;20050;-75
2021/03/21 01:33:51;;;;;;;17.30;7.60;;;;;;;7.37;100.00;100994.75;4953727;29;20035;-75
2021/03/21 01:36:24;;;;;;;17.90;7.70;;;;;;;7.40;100.00;100986.84;4954545;29;20037;-75
2021/03/21 01:38:54;;;;;;;20.20;7.57;;;;;;;7.41;100.00;100987.63;4955078;28;20500;-75
2021/03/21 01:41:26;;;;;;;21.00;7.57;;;;;;;7.41;100.00;100977.72;4954729;28;20043;-76
2021/03/21 01:43:52;;;;;;;17.77;7.22;;;;;;;7.47;100.00;100970.25;4955091;28;20039;-76
2021/03/21 01:46:39;;;;;;;17.30;7.15;;;;;;;7.51;100.00;100961.22;4969862;28;20043;-75
2021/03/21 01:49:27;;;;;;;15.02;6.75;;;;;;;7.54;100.00;100957.13;4953325;29;20046;-76
2021/03/21 01:51:54;;;;;;;14.55;6.28;;;;;;;7.48;100.00;100956.53;4950737;28;20043;-75
2021/03/21 01:54:23;;;;;;;17.30;6.97;;;;;;;7.47;100.00;100944.22;4953448;29;20038;-75
2021/03/21 01:56:49;;;;;;;17.60;7.20;;;;;;;7.59;100.00;100947.00;4954883;29;20050;-75
2021/03/21 01:59:19;;;;;;;18.70;7.18;;;;;;;7.58;100.00;100950.00;4953232;28;20035;-75
2021/03/21 02:01:45;;;;;;;18.23;7.10;;;;;;;7.43;100.00;100945.22;4946705;29;20031;-75
2021/03/21 02:04:12;;;;;;;21.13;7.88;;;;;;;7.54;100.00;100939.16;4953155;28;20030;-75
2021/03/21 02:06:39;;;;;;;21.38;7.43;;;;;;;7.58;100.00;100936.59;4949745;28;20408;-75
2021/03/21 02:09:26;;;;;;;19.20;7.53;;;;;;;7.53;100.00;100940.25;4945816;29;20054;-75
2021/03/21 02:12:00;;;;;;;19.52;7.20;;;;;;;7.56;100.00;100939.63;4947640;29;20042;-75
2021/03/21 02:14:47;;;;;;;18.15;6.82;;;;;;;7.67;100.00;100934.63;4952123;28;20058;-75
2021/03/21 02:17:23;;;;;;;17.50;7.18;;;;;;;7.69;100.00;100932.41;4943233;29;20053;-75
2021/03/21 02:20:04;;;;;;;13.05;6.25;;;;;;;7.68;100.00;100930.84;4951761;29;20047;-75
2021/03/21 02:22:34;;;;;;;11.55;5.60;;;;;;;7.69;100.00;100922.47;4947059;29;20032;-76
2021/03/21 02:25:22;;;;;;;14.37;5.43;;;;;;;7.59;100.00;100927.47;4956428;28;20039;-76
2021/03/21 02:28:30;;;;;;;10.07;4.88;;;;;;;7.63;100.00;100928.34;4950023;28;20039;-75
2021/03/21 02:31:07;;;;;;;10.23;4.68;;;;;;;7.64;100.00;100919.22;4958847;28;20507;-75
2021/03/21 02:33:42;;;;;;;8.00;4.68;;;;;;;7.65;100.00;100910.06;4957063;28;20035;-76
2021/03/21 02:36:15;;;;;;;9.88;4.55;;;;;;;7.72;100.00;100913.00;4954019;28;20035;-76
2021/03/21 02:38:51;;;;;;;10.40;4.22;;;;;;;7.71;100.00;100912.22;4941290;28;20122;-75
2021/03/21 02:41:23;;;;;;;6.55;3.75;;;;;;;7.65;100.00;100888.63;4943949;28;20039;-75
2021/03/21 02:43:54;;;;;;;9.65;3.85;;;;;;;7.77;100.00;100902.06;4952223;28;20035;-75
2021/03/21 02:46:27;;;;;;;7.80;3.40;;;;;;;7.67;100.00;100899.78;4948698;28;20031;-75
2021/03/21 02:49:00;;;;;;;4.82;3.17;;;;;;;7.72;100.00;100889.69;4953287;29;20046;-75
2021/03/21 02:51:31;;;;;;;10.05;3.78;;;;;;;7.76;100.00;100885.19;4953589;28;20058;-75
2021/03/21 02:53:58;;;;;;;7.53;3.00;;;;;;;7.87;100.00;100880.22;4953764;28;20518;-75
2021/03/21 02:56:27;;;;;;;7.10;3.10;;;;;;;7.79;100.00;100867.69;4951656;28;20035;-75
2021/03/21 02:59:00;;;;;;;6.38;2.95;;;;;;;7.81;100.00;100863.56;4949649;28;20043;-76
2021/03/21 03:01:30;;;;;;;4.15;2.45;;;;;;;7.85;100.00;100848.38;4953070;28;20075;-75
2021/03/21 03:03:59;;;;;;;5.15;3.05;;;;;;;7.81;100.00;100844.00;4953916;28;20066;-75
2021/03/21 03:06:35;;;;;;;5.80;2.70;;;;;;;7.72;100.00;100836.06;4951062;28;20035;-75
2021/03/21 03:09:07;;;;;;;5.22;3.05;;;;;;;7.71;100.00;100841.75;4966675;28;20388;-75
2021/03/21 03:11:45;;;;;;;5.00;2.72;;;;;;;7.67;100.00;100849.66;4952077;28;20180;-75
2021/03/21 03:14:14;;;;;;;4.82;2.53;;;;;;;7.71;100.00;100852.47;4951906;28;20521;-75
2021/03/21 03:16:50;;;;;;;4.07;2.83;;;;;;;7.72;100.00;100838.75;4948313;29;20063;-75
2021/03/21 03:19:21;;;;;;;5.63;2.30;;;;;;;7.67;100.00;100855.03;4943957;29;20031;-75
2021/03/21 03:21:53;;;;;;;3.78;2.45;;;;;;;7.71;100.00;100847.09;4952669;28;20049;-75
2021/03/21 03:24:45;;;;;;;5.38;2.50;;;;;;;7.74;100.00;100822.34;4952577;28;20039;-75
2021/03/21 03:27:14;;;;;;;7.50;3.13;;;;;;;7.62;100.00;100820.41;4947492;28;20032;-76
2021/03/21 03:29:48;;;;;;;6.22;3.10;;;;;;;7.79;100.00;100812.19;4947332;28;20038;-76
2021/03/21 03:32:14;;;;;;;7.80;3.05;;;;;;;7.74;100.00;100811.59;4968272;28;20519;-76
2021/03/21 03:34:45;;;;;;;8.00;3.28;;;;;;;7.72;100.00;100803.13;4954835;28;20034;-76
2021/03/21 03:37:11;;;;;;;9.68;3.20;;;;;;;7.66;100.00;100807.13;4952099;29;20158;-76
2021/03/21 03:39:38;;;;;;;8.95;3.10;;;;;;;7.67;100.00;100811.34;4952960;28;20037;-76
2021/03/21 03:42:34;;;;;;;9.63;3.00;;;;;;;7.65;100.00;100800.19;4960804;28;20098;-76
2021/03/21 03:45:12;;;;;;;6.00;2.85;;;;;;;7.77;100.00;100792.16;4939888;29;20054;-75
2021/03/21 03:47:50;;;;;;;9.43;2.92;;;;;;;7.63;100.00;100787.13;4943647;28;20031;-77
2021/03/21 03:50:40;;;;;;;10.95;4.30;;;;;;;7.63;100.00;100795.16;4966701;28;20039;-76
2021/03/21 03:53:15;;;;;;;10.57;3.05;;;;;;;7.73;100.00;100777.88;4950642;28;20131;-76
2021/03/21 03:55:59;;;;;;;11.50;3.17;;;;;;;7.79;100.00;100784.59;4951446;28;20071;-76
2021/03/21 03:58:26;;;;;;;7.03;3.00;;;;;;;7.73;100.00;100788.59;4958016;28;20471;-74
2021/03/21 04:01:01;;;;;;;6.75;2.90;;;;;;;7.72;100.00;100787.81;4951321;28;20039;-75
2021/03/21 04:03:38;;;;;;;8.75;3.25;;;;;;;7.67;100.00;100779.97;4946406;28;20055;-75
2021/03/21 04:06:20;;;;;;;11.18;3.20;;;;;;;7.75;100.00;100781.78;4944062;29;20036;-75
2021/03/21 04:08:49;;;;;;;10.57;2.55;;;;;;;7.84;100.00;100768.31;4947471;29;20038;-75
2021/03/21 04:11:25;;;;;;;8.65;3.05;;;;;;;7.79;100.00;100768.50;4950914;29;20050;-75
2021/03/21 04:13:57;;;;;;;10.15;2.47;;;;;;;7.78;100.00;100765.03;4939608;28;20074;-75
2021/03/21 04:16:39;;;;;;;8.85;2.60;;;;;;;7.64;100.00;100755.75;4946256;29;20408;-77
2021/03/21 04:19:08;;;;;;;10.43;2.72;;;;;;;7.66;100.00;100758.88;4957273;28;20067;-75
2021/03/21 04:21:53;;;;;;;12.88;2.58;;;;;;;7.65;100.00;100754.63;4951552;28;20515;-74
2021/03/21 04:24:30;;;;;;;15.07;2.38;;;;;;;7.63;100.00;100754.16;4952512;28;20110;-74
2021/03/21 04:27:17;;;;;;;9.68;2.40;;;;;;;7.60;100.00;100750.28;4949243;28;20117;-75
2021/03/21 04:29:54;;;;;;;13.23;2.85;;;;;;;7.65;100.00;100746.59;4950503;28;20035;-75
2021/03/21 04:32:26;;;;;;;14.68;2.63;;;;;;;7.66;100.00;100748.16;4948539;28;20444;-74
2021/03/21 04:34:56;;;;;;;15.75;2.80;;;;;;;7.59;100.00;100753.28;4958052;28;20046;-75
2021/03/21 04:37:23;;;;;;;9.00;2.35;;;;;;;7.62;100.00;100747.25;4950013;28;20031;-75
2021/03/21 04:39:52;;;;;;;14.45;2.38;;;;;;;7.65;100.00;100743.91;4942878;29;20042;-75
2021/03/21 04:42:24;;;;;;;16.17;2.85;;;;;;;7.66;100.00;100737.44;4948339;29;20059;-76
2021/03/21 04:44:58;;;;;;;12.05;2.55;;;;;;;7.63;100.00;100746.13;4964926;28;20500;-75
2021/03/21 04:47:32;;;;;;;12.93;2.83;;;;;;;7.63;100.00;100743.44;4952023;28;20035;-75
2021/03/21 04:49:59;;;;;;;21.38;2.83;;;;;;;7.63;100.00;100751.50;4948012;28;20039;-75
2021/03/21 04:52:45;;;;;;;11.20;2.92;;;;;;;7.71;100.00;100754.09;4952161;28;20496;-74
2021/03/21 04:55:19;;;;;;;15.15;2.78;;;;;;;7.64;100.00;100753.06;4949132;29;20138;-75
2021/03/21 04:57:47;;;;;;;15.90;3.35;;;;;;;7.57;100.00;100758.97;4952193;28;20030;-76
2021/03/21 05:00:18;;;;;;;16.50;3.17;;;;;;;7.56;100.00;100767.34;4950805;28;20078;-75
2021/03/21 05:02:46;;;;;;;14.73;3.70;;;;;;;7.65;100.00;100766.13;4947220;29;20519;-75
2021/03/21 05:05:30;;;;;;;12.95;3.03;;;;;;;7.60;100.00;100768.25;4952152;28;20293;-74
2021/03/21 05:08:27;;;;;;;19.80;2.95;;;;;;;7.51;100.00;100770.25;4953926;28;20476;-75
2021/03/21 05:10:57;;;;;;;16.23;2.47;;;;;;;7.44;100.00;100773.44;4959491;28;20067;-75
2021/03/21 05:13:49;;;;;;;16.13;2.72;;;;;;;7.46;100.00;100776.56;4973815;28;20399;-75
2021/03/21 05:16:32;;;;;;;29.27;3.17;;;;;;;7.49;100.00;100791.22;4957506;28;20074;-75
2021/03/21 05:19:43;;;;;;;20.55;3.40;;;;;;;7.21;100.00;100802.50;4955548;29;20035;-75
2021/03/21 05:22:27;;;;;;;19.17;2.95;;;;;;;7.01;99.48;100805.97;4954366;28;20071;-74
2021/03/21 05:25:06;;;;;;;19.08;3.17;;;;;;;7.10;97.62;100813.94;4955902;28;20027;-75
2021/03/21 05:27:40;;;;;;;24.38;3.30;;;;;;;7.12;97.28;100801.00;4948527;28;20451;-74
2021/03/21 05:30:16;;;;;;;33.97;4.35;;;;;;;7.06;95.52;100821.84;4946421;29;20063;-75
2021/03/21 05:32:44;;;;;;;34.95;3.80;;;;;;;7.04;95.61;100818.69;4941259;29;20028;-74
2021/03/21 05:35:17;;;;;;;27.83;3.70;;;;;;;6.88;95.38;100812.34;4947798;29;20118;-74
2021/03/21 05:37:56;;;;;;;33.25;4.00;;;;;;;6.97;95.65;100810.41;4945720;29;20034;-75
2021/03/21 05:40:55;;;;;;;29.77;4.07;;;;;;;7.02;95.01;100812.91;4954086;28;20042;-75
2021/03/21 05:43:53;;;;;;;26.77;3.30;;;;;;;7.03;95.04;100819.00;4947363;29;20525;-75
2021/03/21 05:47:19;;;;;;;36.90;3.97;;;;;;;7.00;94.36;100809.75;4916037;28;20071;-74
2021/03/21 05:50:03;;;;;;;28.25;3.05;;;;;;;6.90;95.02;100815.50;4948648;28;20508;-76
2021/03/21 05:52:59;;;;;;;36.97;3.80;;;;;;;6.88;93.48;100811.56;4953456;29;20030;-74
2021/03/21 05:55:43;;;;;;;23.30;3.17;;;;;;;6.92;91.99;100805.25;4947119;28;20071;-75
2021/03/21 05:58:40;;;;;;;29.33;3.85;;;;;;;6.85;91.87;100814.91;4957323;28;20042;-74
2021/03/21 06:01:43;;;;;;;27.70;3.20;;;;;;;6.90;91.53;100822.72;4948849;29;20067;-75
2021/03/21 06:04:24;;;;;;;25.67;3.75;;;;;;;6.95;91.53;100834.03;4952198;28;20063;-75
2021/03/21 06:07:08;;;;;;;37.73;3.80;;;;;;;6.96;91.19;100826.78;4951420;29;20035;-74
2021/03/21 06:10:03;;;;;;;40.45;5.47;;;;;;;6.93;90.77;100824.78;4954472;28;20033;-74
2021/03/21 06:13:13;;;;;;;28.70;3.72;;;;;;;6.95;90.38;100834.03;4958022;28;20035;-75
2021/03/21 06:16:16;;;;;;;35.60;4.15;;;;;;;6.90;90.56;100842.25;4948752;29;20054;-75
2021/03/21 06:19:06;;;;;;;37.50;4.50;;;;;;;6.93;91.10;100836.25;4942635;28;21400;-75
2021/03/21 06:22:03;;;;;;;29.40;3.78;;;;;;;7.06;91.24;100850.50;4954296;28;20396;-75
2021/03/21 06:24:47;;;;;;;32.25;3.78;;;;;;;7.16;91.08;100848.19;4920364;29;20101;-75
2021/03/21 06:27:37;;;;;;;21.23;4.30;;;;;;;7.17;91.36;100857.81;4953276;28;20035;-75
2021/03/21 06:30:24;;;;;;;43.10;4.07;;;;;;;7.18;91.77;100845.97;4944232;29;20119;-75
2021/03/21 06:33:22;;;;;;;23.92;3.45;;;;;;;7.26;91.27;100849.69;4946074;29;20445;-75
2021/03/21 06:36:04;;;;;;;42.28;3.65;;;;;;;7.17;91.69;100846.31;4936035;28;20129;-76
2021/03/21 06:38:56;;;;;;;33.63;4.30;;;;;;;7.31;91.46;100838.81;4953989;28;20035;-75
2021/03/21 06:41:40;;;;;;;;;;;;;;;7.21;92.36;100850.69;4948182;29;20297;-74
2021/03/21 06:44:11;;;;;;;33.45;4.35;;;;;;;7.22;92.21;100846.91;4941688;29;19980;-75
2021/03/21 06:46:48;;;;;;;;;;;;;;;7.32;91.57;100849.19;4956328;28;20038;-75
2021/03/21 06:49:26;;;;;;;38.17;4.95;;;;;;;7.39;91.24;100845.19;4941870;28;19922;-75
2021/03/21 06:51:56;;;;;;;27.10;3.60;;;;;;;7.43;91.24;100854.16;4936053;29;20059;-76
2021/03/21 06:54:44;;;;;;;32.67;3.80;;;;;;;7.43;90.86;100860.28;4938615;29;20050;-75
2021/03/21 06:57:12;;;;;;;30.45;3.92;;;;;;;7.55;90.23;100863.00;4952848;28;20782;-74
2021/03/21 06:59:40;;;;;;;37.97;4.57;;;;;;;7.66;88.94;100863.41;4947000;29;20031;-75
2021/03/21 07:02:12;;;;;;;36.70;4.68;;;;;;;7.59;89.25;100874.63;4953890;28;20035;-74
2021/03/21 07:05:15;;;;;;;29.40;4.20;;;;;;;7.50;90.13;100889.22;4949448;28;20030;-75
2021/03/21 07:08:05;;;;;;;36.05;4.57;;;;;;;7.62;90.01;100876.69;4946483;29;20035;-75
2021/03/21 07:10:56;;;;;;;37.95;4.05;;;;;;;7.66;90.15;100874.13;4952439;28;20031;-76
2021/03/21 07:13:49;;;;;;;39.20;5.65;;;;;;;7.82;89.56;100872.41;4953295;28;20110;-75
2021/03/21 07:16:23;;;;;;;32.97;3.72;;;;;;;7.78;89.37;100869.56;4950122;29;20045;-75
2021/03/21 07:19:18;;;;;;;44.13;5.07;;;;;;;7.95;88.64;100872.09;4981316;23;20042;-74
2021/03/21 07:22:20;;;;;;;42.20;3.92;;;;;;;8.07;88.09;100877.47;4988512;28;20414;-74
2021/03/21 07:24:58;;;;;;;33.22;4.18;;;;;;;8.19;87.74;100884.75;4974738;28;20065;-75
2021/03/21 07:27:49;;;;;;;27.90;4.10;;;;;;;8.15;87.02;100881.97;4988577;28;20555;-74
2021/03/21 07:30:42;;;;;;;39.10;4.75;;;;;;;8.10;87.54;100884.88;4964835;28;20097;-75
2021/03/21 07:33:24;;;;;;;37.70;4.68;;;;;;;8.14;87.42;100885.78;4967340;28;20050;-75
2021/03/21 07:36:04;;;;;;;31.67;4.03;;;;;;;8.32;87.68;100878.34;4975884;28;20042;-75
2021/03/21 07:38:52;;;;;;;34.33;4.35;;;;;;;8.38;88.13;100886.97;4963156;28;20115;-75
2021/03/21 07:41:35;;;;;;;33.47;3.97;;;;;;;8.51;88.06;100892.00;4952127;28;20027;-75
2021/03/21 07:44:18;;;;;;;43.00;4.90;;;;;;;8.73;87.11;100886.19;4967814;28;20056;-75
2021/03/21 07:47:21;;;;;;;32.58;3.80;;;;;;;8.81;86.16;100885.28;4967105;28;20045;-75
2021/03/21 07:50:27;;;;;;;32.85;4.85;;;;;;;8.80;86.02;100889.09;4969222;28;20042;-75
2021/03/21 07:52:58;;;;;;;37.47;4.20;;;;;;;9.01;85.88;100883.59;4970936;28;20084;-75
2021/03/21 07:55:27;;;;;;;;;;;;;;;9.19;84.38;100882.22;4969266;28;20034;-75
2021/03/21 07:58:07;;;;;;;36.05;4.32;;;;;;;9.34;83.57;100875.34;4973829;28;19921;-74
2021/03/21 08:00:32;;;;;;;38.10;4.53;;;;;;;9.40;83.74;100879.34;4969698;28;20395;-75
2021/03/21 08:03:21;;;;;;;30.35;4.32;;;;;;;9.58;81.67;100888.72;4965776;28;20038;-75
2021/03/21 08:05:51;;;;;;;34.40;4.50;;;;;;;9.56;82.01;100886.34;4959758;28;20057;-75
2021/03/21 08:08:27;;;;;;;38.80;4.80;;;;;;;9.48;83.16;100892.66;4959216;28;20126;-74
2021/03/21 08:10:57;;;;;;;30.48;3.88;;;;;;;9.50;82.58;100886.94;4958376;28;20114;-75
2021/03/21 08:13:39;;;;;;;35.72;4.45;;;;;;;9.58;82.84;100889.47;4953113;28;20031;-75
2021/03/21 08:16:09;;;;;;;33.38;4.50;;;;;;;9.68;83.16;100877.44;4959935;28;20046;-75
2021/03/21 08:18:36;;;;;;;30.08;4.35;;;;;;;9.98;79.56;100870.59;4960749;28;20049;-75
2021/03/21 08:21:11;;;;;;;36.15;4.57;;;;;;;10.03;78.70;100870.31;4970431;28;20049;-75
2021/03/21 08:23:42;;;;;;;26.65;3.90;;;;;;;10.09;79.90;100890.47;4970794;28;20039;-75
2021/03/21 08:26:11;;;;;;;33.33;5.35;;;;;;;10.25;80.70;100895.91;4963419;28;20038;-75
2021/03/21 08:29:04;;;;;;;37.17;4.38;;;;;;;10.68;79.92;100899.28;4959922;28;20122;-75
2021/03/21 08:31:41;;;;;;;26.35;3.85;;;;;;;11.00;74.79;100899.25;4969664;28;20035;-75
2021/03/21 08:34:48;;;;;;;29.10;4.30;;;;;;;10.99;74.17;100909.25;4973639;28;20459;-75
2021/03/21 08:37:16;;;;;;;32.33;5.57;;;;;;;10.87;74.24;100904.75;4960935;28;20170;-74
2021/03/21 08:39:45;;;;;;;28.67;4.20;;;;;;;11.16;72.64;100902.69;4973755;28;20041;-75
2021/03/21 08:42:26;;;;;;;25.10;3.75;;;;;;;11.31;75.01;100904.53;4973293;28;20038;-75
2021/03/21 08:44:59;;;;;;;31.85;3.67;;;;;;;11.32;73.73;100922.31;4973388;28;20844;-75
2021/03/21 08:47:27;;;;;;;25.00;3.75;;;;;;;11.31;72.20;100910.72;4970914;28;20674;-75
2021/03/21 08:49:56;;;;;;;28.58;4.00;;;;;;;11.53;70.89;100920.06;4959142;28;20047;-75
2021/03/21 08:52:45;;;;;;;26.33;3.83;;;;;;;11.75;69.52;100911.25;4959748;28;20031;-75
2021/03/21 08:55:40;;;;;;;20.42;3.10;;;;;;;11.58;70.08;100925.16;4964218;28;20093;-74
2021/03/21 08:58:24;;;;;;;36.67;4.55;;;;;;;11.85;69.40;100928.78;4951350;28;20047;-75
2021/03/21 09:00:50;;;;;;;21.15;3.45;;;;;;;11.94;68.83;100935.56;4964972;28;20042;-74
2021/03/21 09:03:24;;;;;;;28.63;4.22;;;;;;;12.00;67.17;100926.00;4970010;28;20015;-75
2021/03/21 09:05:53;;;;;;;27.77;4.18;;;;;;;12.07;67.78;100945.06;4965540;28;20039;-75
2021/03/21 09:08:23;;;;;;;30.15;4.07;;;;;;;12.17;67.11;100944.50;4958044;28;20102;-75
2021/03/21 09:11:02;;;;;;;26.58;3.42;;;;;;;12.22;65.30;100940.69;4961647;28;20127;-75
2021/03/21 09:13:31;;;;;;;27.33;3.78;;;;;;;12.19;65.37;100939.50;4960584;28;20047;-75
2021/03/21 09:15:57;;;;;;;25.75;4.10;;;;;;;12.25;65.43;100938.06;4955951;28;20037;-75
2021/03/21 09:18:26;;;;;;;24.98;4.30;;;;;;;12.04;65.98;100937.66;4961026;28;20043;-75
2021/03/21 09:21:07;;;;;;;28.55;4.57;;;;;;;11.96;66.10;100948.69;4960928;28;20456;-75
2021/03/21 09:23:33;;;;;;;23.05;3.70;;;;;;;11.98;64.71;100947.19;4959961;28;20057;-74
2021/03/21 09:26:00;;;;;;;25.08;3.70;;;;;;;11.90;65.42;100958.22;4969537;28;20031;-74
2021/03/21 09:28:33;;;;;;;20.38;3.33;;;;;;;11.94;64.89;100972.56;4959681;28;20023;-74
2021/03/21 09:31:02;;;;;;;21.90;3.05;;;;;;;11.83;67.25;100964.25;4952413;28;20051;-75
2021/03/21 09:33:34;;;;;;;19.80;3.58;;;;;;;11.90;66.52;100969.00;4966008;28;20039;-74
2021/03/21 09:36:39;;;;;;;25.85;3.70;;;;;;;11.79;65.71;100974.97;4963082;28;20038;-76
2021/03/21 09:39:20;;;;;;;16.98;3.50;;;;;;;11.73;65.55;100975.59;4961684;28;20054;-74
2021/03/21 09:41:49;;;;;;;25.40;3.40;;;;;;;11.78;65.18;100978.81;4967864;28;20042;-74
2021/03/21 09:44:32;;;;;;;20.60;3.42;;;;;;;11.77;65.61;100985.34;4973679;28;20030;-74
2021/03/21 09:47:19;;;;;;;21.58;3.03;;;;;;;11.95;66.11;100985.69;4968348;28;20034;-74
2021/03/21 09:49:50;;;;;;;21.98;3.08;;;;;;;12.06;64.15;100991.31;4961934;28;20466;-74
2021/03/21 09:52:29;;;;;;;24.70;3.58;;;;;;;12.18;63.91;100996.53;4976689;28;20038;-74
2021/03/21 09:55:07;;;;;;;21.52;3.70;;;;;;;12.15;63.78;100992.66;4967014;28;20404;-74
2021/03/21 09:57:52;;;;;;;24.95;3.17;;;;;;;12.04;62.75;100986.25;4970028;28;20085;-74
2021/03/21 10:00:22;;;;;;;21.10;3.10;;;;;;;12.03;63.94;100992.00;4965117;28;20122;-74
2021/03/21 10:02:54;;;;;;;19.65;3.15;;;;;;;11.99;64.65;100989.25;4971195;28;20039;-74
2021/03/21 10:05:35;;;;;;;18.65;3.00;;;;;;;12.08;63.22;100987.09;4970438;28;20627;-74
2021/03/21 10:08:14;;;;;;;23.05;3.40;;;;;;;12.04;63.21;100993.59;4983222;28;20034;-74
2021/03/21 10:10:52;;;;;;;19.55;3.25;;;;;;;11.95;64.43;100993.78;4967005;28;20041;-74
2021/03/21 10:13:40;;;;;;;21.15;3.42;;;;;;;12.05;64.06;100995.94;4971617;28;20034;-74
2021/03/21 10:16:14;;;;;;;18.52;3.33;;;;;;;12.00;62.83;101006.22;4971693;28;20041;-74
2021/03/21 10:18:57;;;;;;;23.45;3.67;;;;;;;12.01;64.20;101003.16;4967957;28;20054;-74
2021/03/21 10:21:22;;;;;;;17.10;2.80;;;;;;;12.27;63.20;101011.38;4983386;28;20045;-74
2021/03/21 10:23:48;;;;;;;19.15;2.80;;;;;;;12.09;63.49;101010.28;5000759;28;20038;-76
2021/03/21 10:26:15;;;;;;;22.45;2.92;;;;;;;12.18;62.43;101018.16;4979193;28;20550;-74
2021/03/21 10:29:03;;;;;;;15.10;2.40;;;;;;;12.16;63.20;101012.31;4982764;28;20089;-77
2021/03/21 10:31:34;;;;;;;18.45;3.38;;;;;;;12.20;62.26;101015.88;4951823;28;20045;-74
2021/03/21 10:34:03;;;;;;;18.38;2.97;;;;;;;12.25;63.27;101008.25;4989716;28;20026;-75
2021/03/21 10:36:37;;;;;;;18.77;2.40;;;;;;;12.28;63.44;101007.56;4977092;28;20035;-75
2021/03/21 10:39:08;;;;;;;16.88;2.83;;;;;;;12.48;62.48;101025.31;4985552;28;20042;-73
2021/03/21 10:42:09;;;;;;;19.35;2.72;;;;;;;12.63;60.97;101029.84;4974738;28;20043;-73
2021/03/21 10:44:34;;;;;;;16.63;2.67;;;;;;;12.79;58.83;101035.13;4992125;28;20077;-73
2021/03/21 10:47:05;;;;;;;19.02;2.72;;;;;;;12.82;60.11;101037.09;4986767;28;20039;-77
2021/03/21 10:50:12;;;;;;;17.67;2.63;;;;;;;12.96;59.21;101037.34;4978701;28;20038;-75
2021/03/21 10:52:44;;;;;;;15.25;2.75;;;;;;;12.91;59.36;101043.03;4965587;28;20043;-76
2021/03/21 10:55:13;;;;;;;20.05;2.95;;;;;;;13.02;58.89;101043.22;4973896;28;20066;-77
2021/03/21 10:57:41;;;;;;;18.60;3.00;;;;;;;12.98;58.24;101050.50;4983148;28;20126;-76
2021/03/21 11:00:10;;;;;;;14.00;2.78;;;;;;;12.94;58.83;101050.44;4985257;28;20069;-75
2021/03/21 11:02:36;;;;;;;14.68;2.83;;;;;;;12.93;57.98;101050.81;4997183;28;20055;-76
2021/03/21 11:05:06;;;;;;;19.17;2.70;;;;;;;12.84;58.26;101042.94;4982629;28;20043;-75
2021/03/21 11:07:31;;;;;;;12.63;2.70;;;;;;;13.04;57.59;101040.97;4980694;28;20043;-74
2021/03/21 11:10:07;;;;;;;13.05;2.67;;;;;;;13.10;57.99;101037.63;4982080;28;20046;-76
2021/03/21 11:12:38;;;;;;;18.05;2.20;;;;;;;13.18;57.58;101043.91;4977908;28;20098;-73
2021/03/21 11:15:30;;;;;;;11.63;2.15;;;;;;;13.08;57.30;101049.94;4965250;28;20974;-75
2021/03/21 11:18:17;;;;;;;15.57;2.58;;;;;;;12.99;57.28;101041.25;4964272;28;20030;-73
2021/03/21 11:20:43;;;;;;;12.27;2.45;;;;;;;12.93;57.79;101048.09;4967177;28;20038;-74
2021/03/21 11:23:17;;;;;;;13.52;2.00;;;;;;;13.16;56.78;101051.63;4967272;28;20027;-74
2021/03/21 11:25:43;;;;;;;20.15;2.97;;;;;;;13.27;56.63;101041.75;4973619;28;20026;-74
2021/03/21 11:28:22;;;;;;;12.10;2.42;;;;;;;13.19;55.93;101050.88;4962269;28;20043;-74
2021/03/21 11:30:57;;;;;;;15.07;2.22;;;;;;;13.37;56.00;101041.91;4975068;28;20084;-73
2021/03/21 11:33:38;;;;;;;14.50;2.00;;;;;;;13.44;55.68;101047.44;4962209;28;20487;-74
2021/03/21 11:36:18;;;;;;;13.38;2.40;;;;;;;13.49;53.69;101027.41;4962413;28;20034;-74
2021/03/21 11:38:46;;;;;;;12.02;2.53;;;;;;;13.61;54.22;101043.41;4977350;28;20041;-74
2021/03/21 11:41:37;;;;;;;9.38;2.25;;;;;;;13.73;54.35;101034.28;4967170;28;20039;-75
2021/03/21 11:44:27;;;;;;;8.88;2.20;;;;;;;14.05;54.24;101038.19;4989361;28;20038;-75
2021/03/21 11:47:09;;;;;;;11.07;2.08;;;;;;;13.98;51.61;101033.47;4974242;28;20043;-75
2021/03/21 11:49:34;;;;;;;7.97;1.55;;;;;;;14.09;51.26;101041.75;4974243;28;20462;-75
2021/03/21 11:52:02;;;;;;;8.45;1.77;;;;;;;14.42;51.66;101036.31;4968507;28;20023;-75
2021/03/21 11:54:30;;;;;;;7.63;1.73;;;;;;;14.60;49.50;101031.09;4966435;28;20039;-75
2021/03/21 11:57:12;;;;;;;9.13;2.00;;;;;;;14.74;50.00;101031.25;4963330;28;20043;-75
2021/03/21 11:59:49;;;;;;;7.65;1.55;;;;;;;14.88;49.69;101034.09;4967981;28;20038;-75
2021/03/21 12:02:28;;;;;;;7.70;1.75;;;;;;;14.90;48.24;101034.50;4973257;28;20050;-75
2021/03/21 12:04:55;;;;;;;8.82;1.77;;;;;;;15.16;48.13;101037.81;4969883;28;20554;-75